Date,TemperatureHighF,TemperatureAvgF,TemperatureLowF,DewpointHighF,DewpointAvgF,DewpointLowF,HumidityHigh,HumidityAvg,HumidityLow,PressureMaxIn,PressureMinIn,WindSpeedMaxMPH,WindSpeedAvgMPH,GustSpeedMaxMPH,PrecipitationSumIn
2014-1-1,52.5,39.8,29.7,38.1,33.4,29.1,99,81,47,30.26,30.03,3,0,0,0.00
2014-1-2,47.1,42.3,29.5,46.8,39.8,15.2,99,92,54,30.03,29.56,12,1,0,0.24
2014-1-3,39.4,27.4,19.8,20.2,14.6,9.6,94,61,32,30.31,29.82,7,1,0,0.00
2014-1-4,37.2,28.7,18.1,25.4,17.6,13.6,97,66,40,30.36,30.12,4,1,0,0.00
2014-1-5,42.6,38.3,33.8,42.3,37.3,26.1,99,96,70,30.12,29.65,3,0,0,0.32
2014-1-6,42.8,30.7,11.5,42.5,20.5,-0.6,99,68,36,30.20,29.59,11,3,0,0.10
2014-1-7,34.7,17.5,8.1,11.5,3.7,-1.3,79,56,28,30.37,30.20,4,1,0,0.00
2014-1-8,48.6,26.6,12.2,18.4,13.0,7.1,97,63,23,30.45,30.33,2,0,0,0.00
2014-1-9,51.3,33.3,20.7,38.6,22.0,15.9,96,68,27,30.43,30.31,3,0,0,0.00
2014-1-10,48.4,43.8,37.8,48.1,43.1,30.7,99,98,66,30.30,29.92,4,1,0,0.51
2014-1-11,58.6,50.8,42.8,58.3,49.5,38.6,99,96,75,29.92,29.52,6,1,0,1.93
2014-1-12,65.8,44.4,32.7,41.6,36.9,32.5,99,78,36,30.05,29.73,3,0,0,0.00
2014-1-13,60.3,43.2,28.8,47.2,38.1,28.6,99,85,47,30.05,29.80,2,0,0,0.17
2014-1-14,66.9,49.3,36.7,51.7,40.8,30.5,99,77,31,29.85,29.68,7,1,0,0.10
2014-1-15,58.3,39.3,29.3,39.4,29.9,19.6,99,73,39,29.85,29.75,5,1,0,0.00
2014-1-16,51.3,33.7,22.8,25.9,21.4,15.9,99,65,31,29.95,29.83,4,0,0,0.00
2014-1-17,55.4,38.2,25.7,33.6,23.5,17.9,85,58,29,29.90,29.72,5,1,0,0.00
2014-1-18,48.9,33.0,25.3,20.7,15.1,10.8,73,48,27,30.02,29.86,5,2,0,0.00
2014-1-19,62.8,40.7,27.1,30.9,24.8,17.5,76,55,28,29.89,29.82,5,1,0,0.00
2014-1-20,71.2,47.0,33.8,32.4,28.5,25.7,77,53,21,29.85,29.71,4,1,0,0.00
2014-1-21,60.1,40.7,30.2,34.3,27.4,17.2,85,62,28,29.76,29.48,10,2,0,0.00
2014-1-22,45.3,29.2,18.9,18.2,8.8,-0.1,72,46,17,29.98,29.77,4,1,0,0.00
2014-1-23,49.5,30.6,18.7,15.9,9.2,0.2,79,43,22,30.31,29.98,6,1,0,0.00
2014-1-24,37.8,22.5,11.5,5.9,0.1,-6.6,58,39,16,30.52,30.15,6,1,0,0.00
2014-1-25,41.4,29.0,14.5,19.4,11.4,-0.9,72,49,31,30.15,29.64,7,1,0,0.00
2014-1-26,57.4,40.6,25.9,30.5,26.0,19.7,88,58,35,29.85,29.73,4,1,0,0.00
2014-1-27,71.6,49.5,39.4,38.5,32.4,26.0,77,54,30,29.90,29.70,5,1,0,0.00
2014-1-28,40.8,31.1,24.4,27.5,15.6,3.4,92,58,26,30.13,29.88,7,2,0,0.00
2014-1-29,36.3,26.1,16.7,21.3,15.1,4.9,95,66,34,30.22,30.04,4,1,0,0.02
2014-1-30,45.5,24.2,9.7,18.4,13.9,8.3,97,70,28,30.26,30.08,5,0,0,0.04
2014-1-31,64.9,34.2,15.4,25.9,17.4,12.4,98,61,14,30.11,29.99,4,0,0,0.00
2014-2-1,59.0,40.9,22.8,41.6,28.4,19.5,94,66,24,30.09,29.99,3,0,0,0.00
2014-2-2,67.6,49.0,35.2,52.3,45.4,34.9,99,89,58,30.04,29.82,3,0,0,0.00
2014-2-3,76.8,59.9,45.5,61.5,55.0,42.9,99,86,47,30.04,29.73,4,1,0,0.35
2014-2-4,49.8,42.8,38.7,42.2,39.0,37.8,99,87,74,30.19,29.96,7,2,0,0.01
2014-2-5,68.7,45.7,35.2,53.0,39.5,29.7,99,81,48,29.99,29.73,5,1,0,0.32
2014-2-6,50.2,38.2,27.9,34.6,29.3,25.2,99,73,40,30.20,30.00,4,0,0,0.00
2014-2-7,61.5,41.7,28.0,35.2,32.7,27.8,99,74,35,30.21,30.08,4,1,0,0.00
2014-2-8,67.3,45.4,36.0,39.1,35.2,32.0,98,72,29,30.13,29.94,4,0,0,0.00
2014-2-9,68.2,46.1,32.5,41.6,37.3,32.3,99,75,38,30.02,29.85,4,1,0,0.00
2014-2-10,45.0,39.9,33.6,42.8,38.2,33.3,99,94,81,30.07,29.91,6,1,0,0.03
2014-2-11,39.0,34.3,32.2,37.2,33.3,31.2,99,96,90,30.20,30.06,4,2,0,0.14
2014-2-12,32.4,28.0,26.1,31.7,26.9,24.2,99,95,88,30.21,29.67,10,4,0,0.01
2014-2-13,54.0,38.4,29.3,38.5,32.6,29.0,99,82,50,29.66,29.48,8,1,0,0.52
2014-2-14,60.6,42.3,30.4,39.3,32.6,28.4,97,71,38,29.73,29.55,4,0,0,0.01
2014-2-15,59.0,43.4,36.5,40.0,28.3,15.0,99,62,20,29.94,29.47,9,2,0,0.09
2014-2-16,66.9,46.1,31.8,34.1,28.0,19.7,80,51,28,30.00,29.87,5,1,0,0.00
2014-2-17,57.6,43.5,29.1,41.9,32.0,28.0,99,68,38,30.19,30.00,8,1,0,0.00
2014-2-18,74.1,50.7,30.4,52.5,37.4,30.2,99,68,24,30.10,29.91,4,0,0,0.00
2014-2-19,81.5,64.9,55.8,60.4,57.0,53.3,99,78,45,29.94,29.83,7,1,0,0.01
2014-2-20,76.6,62.5,53.8,60.4,56.4,53.2,99,82,56,29.99,29.77,3,0,0,0.00
2014-2-21,72.1,58.6,41.9,60.5,41.4,12.3,99,62,13,29.92,29.69,6,2,0,0.90
2014-2-22,71.8,48.2,33.4,36.5,30.2,23.2,97,58,16,30.08,29.92,3,1,0,0.00
2014-2-23,77.4,51.9,32.4,40.1,35.4,31.4,98,61,22,29.98,29.79,5,0,0,0.00
2014-2-24,78.1,54.3,36.3,41.6,33.4,19.3,98,55,15,29.97,29.79,8,1,0,0.00
2014-2-25,76.1,51.4,32.9,42.6,36.3,30.0,92,60,25,29.95,29.75,4,1,0,0.00
2014-2-26,61.0,46.7,33.3,37.4,28.5,22.4,90,52,25,29.79,29.62,6,1,0,0.00
2014-2-27,64.9,41.9,25.7,29.8,19.2,10.3,95,50,12,29.83,29.67,4,1,0,0.00
2014-2-28,59.0,40.9,26.2,23.6,16.8,11.0,76,40,19,30.12,29.83,7,2,0,0.00
2014-3-1,60.6,43.7,37.6,40.7,27.3,20.9,74,53,38,30.22,30.09,5,2,0,0.00
2014-3-2,82.0,60.8,42.6,49.4,44.1,39.5,90,58,28,30.10,29.80,5,1,0,0.00
2014-3-3,71.8,51.8,35.8,60.5,46.0,30.9,99,81,61,30.07,29.65,9,2,0,0.08
2014-3-4,42.3,35.8,29.8,31.8,19.0,9.7,86,52,33,30.18,30.05,6,2,0,0.00
2014-3-5,61.7,43.6,32.2,33.5,27.7,18.6,87,56,31,30.09,29.94,4,1,0,0.00
2014-3-6,41.9,36.7,32.9,35.7,27.8,17.7,99,74,38,30.17,29.87,10,4,0,1.05
2014-3-7,55.0,43.6,36.0,47.8,40.5,35.7,99,90,62,29.92,29.80,8,3,0,0.82
2014-3-8,75.2,51.4,31.5,47.3,38.8,31.3,99,68,31,30.00,29.87,4,1,0,0.00
2014-3-9,74.7,54.9,40.3,45.5,41.4,34.1,99,64,35,29.99,29.88,5,1,0,0.00
2014-3-10,77.4,57.3,38.5,46.6,40.2,32.8,90,57,28,29.91,29.69,5,1,0,0.00
2014-3-11,82.4,63.2,45.7,49.6,45.3,41.8,87,57,27,29.73,29.53,4,1,0,0.00
2014-3-12,76.6,60.0,43.2,63.0,50.9,25.5,99,74,46,29.65,29.23,12,3,0,0.10
2014-3-13,57.4,43.9,33.3,25.3,17.4,4.7,71,38,13,30.08,29.65,8,3,0,0.00
2014-3-14,68.7,45.7,25.7,29.7,24.4,16.7,99,52,17,30.18,29.95,6,1,0,0.00
2014-3-15,74.3,57.4,42.4,41.4,36.6,29.3,73,48,28,29.96,29.83,3,1,0,0.00
2014-3-16,52.7,49.5,43.9,52.0,47.5,41.4,99,93,71,29.87,29.54,5,1,0,1.03
2014-3-17,43.3,37.7,34.3,43.0,37.4,34.0,99,99,99,29.78,29.58,10,3,0,0.22
2014-3-18,56.8,42.1,34.2,44.5,38.3,33.4,99,87,62,30.00,29.74,7,3,0,0.00
2014-3-19,58.3,47.8,41.7,48.2,44.5,41.4,99,90,65,30.03,29.87,3,1,0,0.00
2014-3-20,74.1,55.3,41.0,48.3,35.8,20.0,99,59,14,29.92,29.80,5,1,0,0.00
2014-3-21,71.6,50.3,29.8,37.6,30.9,25.6,99,56,20,30.05,29.90,4,1,0,0.00
2014-3-22,78.6,56.7,38.1,48.4,42.6,36.6,97,64,34,29.93,29.79,4,0,0,0.00
2014-3-23,61.2,51.7,39.9,53.2,46.8,39.6,99,84,66,29.98,29.77,4,1,0,0.00
2014-3-24,59.0,44.4,29.3,39.3,31.3,25.6,99,66,32,30.11,29.87,6,1,0,0.00
2014-3-25,53.4,43.2,35.2,44.5,31.5,16.0,99,67,31,29.96,29.70,14,3,0,0.12
2014-3-26,59.0,38.9,24.3,26.2,16.7,9.1,83,46,17,30.16,29.96,5,1,0,0.00
2014-3-27,65.3,45.5,27.5,38.0,27.6,22.5,94,57,21,30.28,30.08,5,1,0,0.00
2014-3-28,60.4,55.4,48.7,59.6,53.1,40.1,99,92,72,30.09,29.92,3,0,0,0.16
2014-3-29,70.9,59.4,47.7,64.0,56.6,39.8,99,91,70,29.93,29.50,7,1,0,0.16
2014-3-30,72.9,53.8,41.0,37.5,32.1,22.6,82,48,18,29.93,29.65,8,2,0,0.00
2014-3-31,80.6,55.6,31.5,40.0,32.3,20.3,99,54,13,30.01,29.89,4,1,0,0.00
2014-4-1,87.1,62.7,41.2,47.1,38.9,32.0,95,51,19,30.00,29.86,6,1,0,0.00
2014-4-2,87.6,65.9,44.1,47.2,39.1,27.6,93,45,15,29.98,29.87,4,1,0,0.00
2014-4-3,88.0,71.3,58.6,58.9,54.0,44.4,82,56,36,29.91,29.75,5,1,0,0.00
2014-4-4,83.1,68.2,54.9,61.7,55.1,51.3,94,66,37,29.77,29.63,9,1,0,0.00
2014-4-5,75.7,61.7,51.6,56.4,46.6,37.4,99,63,26,29.86,29.75,4,1,0,0.00
2014-4-6,62.4,56.2,50.9,46.6,40.5,32.0,83,57,43,30.00,29.85,5,2,0,0.00
2014-4-7,55.2,51.3,47.5,54.6,50.3,44.4,99,97,67,29.88,29.52,5,1,0,2.57
2014-4-8,70.0,56.2,47.5,55.8,47.9,40.7,99,77,43,29.61,29.49,3,1,0,0.06
2014-4-9,73.0,56.0,41.5,49.1,39.6,25.0,99,62,20,29.99,29.62,7,2,0,0.00
2014-4-10,79.3,57.2,37.2,44.3,39.9,36.9,99,60,25,30.14,29.99,4,1,0,0.00
2014-4-11,79.0,61.2,44.1,49.3,45.9,40.9,96,61,31,30.10,29.95,8,1,0,0.00
2014-4-12,86.9,65.1,45.9,54.2,50.1,45.6,99,66,28,30.06,29.94,5,1,0,0.00
2014-4-13,83.1,66.8,50.9,61.4,56.1,50.6,99,72,40,30.05,29.88,5,0,0,0.00
2014-4-14,75.4,65.7,59.7,67.7,62.0,56.9,99,88,67,29.89,29.63,3,0,0,0.24
2014-4-15,67.3,59.5,39.2,64.8,54.2,30.0,99,84,52,29.91,29.49,8,2,0,1.05
2014-4-16,63.0,46.2,34.3,36.3,28.8,24.7,79,54,27,30.23,29.92,6,2,0,0.00
2014-4-17,67.8,50.4,35.2,40.7,34.4,29.8,96,59,29,30.38,30.20,6,1,0,0.00
2014-4-18,57.6,50.8,47.1,50.4,42.9,36.2,99,76,56,30.26,30.00,4,1,0,0.38
2014-4-19,57.6,52.9,48.4,55.3,50.0,46.3,99,90,74,30.05,29.92,10,3,0,0.06
2014-4-20,75.2,60.8,48.2,47.8,42.4,34.8,89,55,23,30.12,30.00,9,2,0,0.00
2014-4-21,84.0,59.2,40.6,52.0,45.4,40.3,99,66,28,30.06,29.79,4,0,0,0.00
2014-4-22,78.1,63.4,49.6,65.1,57.1,49.1,99,82,51,29.79,29.60,5,0,0,0.01
2014-4-23,88.0,66.0,51.8,58.8,48.8,35.9,99,63,20,29.78,29.62,3,0,0,0.00
2014-4-24,85.3,62.6,47.3,52.9,42.6,34.5,84,51,27,29.97,29.77,5,1,0,0.00
2014-4-25,87.3,67.8,55.4,63.8,56.7,49.9,97,72,34,29.77,29.61,6,1,0,0.00
2014-4-26,84.7,65.0,47.7,53.7,50.1,46.4,99,64,31,29.89,29.74,3,0,0,0.00
2014-4-27,87.6,67.7,49.5,64.4,56.9,49.2,99,73,41,29.87,29.75,3,0,0,0.00
2014-4-28,86.2,72.3,61.7,68.0,64.7,61.4,99,79,49,29.79,29.64,3,0,0,0.00
2014-4-29,80.1,72.0,65.7,68.9,66.4,64.0,99,84,61,29.81,29.57,3,0,0,0.01
2014-4-30,74.1,66.7,60.4,68.9,64.1,60.1,99,92,80,29.83,29.69,3,0,0,0.14
2014-5-1,73.4,65.3,57.7,63.7,55.6,45.8,98,73,48,29.78,29.68,4,1,0,0.00
2014-5-2,75.9,61.7,50.7,51.7,47.0,42.1,93,62,33,29.84,29.68,3,0,0,0.00
2014-5-3,82.9,64.1,47.7,51.5,46.4,40.6,92,56,30,29.83,29.72,4,1,0,0.00
2014-5-4,90.7,69.3,50.0,58.9,52.0,46.9,98,60,23,29.91,29.75,3,0,0,0.00
2014-5-5,93.4,74.2,57.4,61.4,56.1,51.0,91,57,24,29.86,29.69,5,0,0,0.00
2014-5-6,92.7,74.9,60.6,61.3,57.3,53.7,88,58,30,29.81,29.71,3,0,0,0.00
2014-5-7,90.7,72.1,55.9,62.9,57.4,52.7,98,65,33,29.97,29.81,3,0,0,0.00
2014-5-8,90.9,72.4,55.0,64.3,59.3,54.1,98,68,36,30.07,29.95,4,0,0,0.00
2014-5-9,82.0,69.8,60.1,72.3,65.0,59.5,99,86,63,30.01,29.91,3,0,0,0.00
2014-5-10,81.7,68.5,62.2,72.7,66.4,61.9,99,94,65,29.95,29.87,2,0,0,0.24
2014-5-11,86.5,72.1,62.4,71.5,65.5,62.1,99,83,49,30.02,29.91,3,0,0,0.01
2014-5-12,92.3,75.1,60.6,71.4,66.6,60.3,99,78,46,30.05,29.95,2,0,0,0.00
2014-5-13,88.7,75.8,65.7,71.5,67.2,63.4,99,77,50,30.02,29.93,3,0,0,0.00
2014-5-14,87.1,73.6,63.3,68.8,65.5,63.0,99,79,50,30.00,29.83,5,0,0,0.15
2014-5-15,72.1,67.3,56.5,71.8,66.1,53.3,99,96,81,29.85,29.69,4,0,0,1.78
2014-5-16,70.7,58.7,47.3,53.4,47.3,37.9,99,69,46,29.98,29.78,5,1,0,0.00
2014-5-17,68.2,55.6,43.2,52.3,47.5,41.3,99,76,46,30.06,29.97,3,0,0,0.00
2014-5-18,59.5,55.5,52.9,58.9,55.0,51.5,99,98,93,30.12,30.03,0,0,0,0.17
2014-5-19,74.5,60.2,49.5,58.9,53.5,49.2,99,81,48,30.17,30.07,5,0,0,0.00
2014-5-20,80.8,67.0,51.1,67.3,60.7,50.8,99,82,61,30.16,29.96,3,0,0,0.00
2014-5-21,88.5,73.3,61.0,69.7,64.5,60.7,99,77,50,30.01,29.85,3,1,0,0.00
2014-5-22,91.4,77.6,65.5,69.7,65.0,61.1,87,67,43,29.92,29.78,3,1,0,0.00
2014-5-23,92.8,77.9,65.1,73.2,67.3,64.1,99,72,48,29.90,29.80,3,0,0,0.00
2014-5-24,84.6,73.0,63.7,68.7,62.9,55.8,97,73,48,30.00,29.88,6,0,0,0.00
2014-5-25,85.8,70.7,63.1,69.8,65.1,61.9,99,84,54,30.04,29.94,3,0,0,0.19
2014-5-26,86.0,70.9,59.0,73.7,66.3,58.7,99,87,61,30.07,29.94,3,0,0,0.01
2014-5-27,89.6,75.4,64.4,73.7,68.0,62.9,99,80,55,30.01,29.85,3,0,0,0.00
2014-5-28,91.6,75.9,63.1,71.7,66.6,62.8,99,76,45,29.93,29.81,2,0,0,0.00
2014-5-29,90.5,74.4,65.5,73.3,68.4,65.1,99,83,53,29.93,29.82,3,0,0,0.00
2014-5-30,87.4,71.9,67.1,71.6,68.5,66.7,99,91,57,29.95,29.87,3,0,0,0.12
2014-5-31,81.0,71.8,64.8,72.0,68.5,64.5,99,90,70,30.02,29.93,4,0,0,0.00
2014-6-1,82.2,71.8,64.2,68.0,64.5,61.1,97,79,52,30.14,30.02,3,0,0,0.00
2014-6-2,81.3,68.2,58.3,62.5,58.8,54.7,99,75,43,30.13,29.99,3,0,0,0.00
2014-6-3,88.7,73.0,57.9,69.0,64.4,57.6,99,77,49,30.02,29.83,3,0,0,0.00
2014-6-4,93.7,78.3,65.5,72.0,68.8,65.2,99,76,43,29.86,29.68,4,0,0,0.00
2014-6-5,91.4,81.0,73.8,72.5,70.0,66.8,88,71,47,29.72,29.62,3,0,0,0.00
2014-6-6,90.7,77.7,68.2,72.5,69.1,66.7,99,76,48,29.79,29.70,3,0,0,0.00
2014-6-7,90.5,77.3,68.2,73.1,70.1,66.6,98,80,55,29.83,29.74,4,0,0,0.00
2014-6-8,87.4,76.6,69.8,75.0,70.3,66.2,99,82,60,29.83,29.68,3,0,0,0.85
2014-6-9,91.4,81.2,64.4,76.1,69.9,64.1,99,70,55,29.78,29.69,3,0,0,0.00
2014-6-10,93.2,78.2,67.8,72.8,68.9,65.4,99,75,49,29.82,29.73,3,0,0,0.00
2014-6-11,89.2,74.8,67.1,73.2,69.0,66.2,99,84,52,29.85,29.66,2,0,0,0.32
2014-6-12,83.1,72.2,65.7,74.0,68.7,65.4,99,90,66,29.77,29.66,2,0,0,0.34
2014-6-13,86.7,73.2,64.9,72.7,67.9,63.5,99,85,59,29.79,29.68,3,0,0,0.00
2014-6-14,89.6,74.8,62.2,69.6,66.2,61.9,99,78,45,29.90,29.79,2,0,0,0.00
2014-6-15,92.3,78.0,66.0,72.2,69.0,65.7,99,77,47,30.00,29.90,4,0,0,0.00
2014-6-16,91.8,79.2,69.1,74.6,71.0,68.2,98,78,50,30.04,29.96,3,0,0,0.00
2014-6-17,95.5,80.2,68.2,75.3,71.0,67.9,99,77,44,30.05,29.93,3,0,0,0.00
2014-6-18,94.3,80.1,69.8,75.7,72.6,69.2,99,80,48,30.00,29.93,2,0,0,0.00
2014-6-19,96.6,80.5,71.2,75.7,71.4,64.7,99,77,39,30.00,29.89,4,0,0,0.00
2014-6-20,97.0,80.5,66.2,71.5,68.7,65.9,99,71,39,29.94,29.78,3,0,0,0.00
2014-6-21,95.4,80.4,67.8,72.4,68.4,65.8,98,70,39,29.82,29.67,3,0,0,0.00
2014-6-22,94.3,79.9,68.4,70.7,67.6,63.6,98,70,37,29.78,29.68,3,0,0,0.00
2014-6-23,93.2,79.6,70.7,73.5,70.0,66.7,90,74,49,29.94,29.78,5,1,0,0.00
2014-6-24,86.9,77.6,68.9,73.9,70.8,67.5,97,80,60,29.96,29.84,3,0,0,0.00
2014-6-25,92.7,76.5,70.9,72.9,70.8,69.6,99,84,48,29.90,29.80,3,1,0,0.00
2014-6-26,86.4,73.8,68.9,71.3,69.0,67.7,96,86,55,29.89,29.78,2,0,0,0.00
2014-6-27,87.6,78.9,72.5,74.1,71.5,70.0,97,79,60,29.97,29.83,3,0,0,0.00
2014-6-28,91.4,74.7,69.1,74.5,71.5,68.8,99,91,53,30.06,29.96,3,0,0,0.32
2014-6-29,88.9,76.4,70.5,75.3,72.1,68.8,99,88,59,30.10,29.96,5,0,0,0.00
2014-6-30,80.2,73.1,67.8,75.6,71.5,67.5,99,95,80,30.00,29.82,3,0,0,0.62
2014-7-1,94.5,80.0,70.0,77.4,73.2,69.7,99,82,52,29.86,29.73,3,0,0,0.00
2014-7-2,97.2,82.6,71.1,77.3,73.8,70.7,99,78,43,29.81,29.76,3,0,0,0.00
2014-7-3,95.0,80.8,71.8,77.1,72.9,65.6,99,78,52,29.83,29.72,3,0,0,0.00
2014-7-4,90.0,77.3,65.8,66.6,63.3,59.4,90,64,44,30.02,29.83,3,0,0,0.00
2014-7-5,87.6,75.3,65.8,62.5,57.3,53.3,83,55,36,30.13,30.02,4,1,0,0.00
2014-7-6,89.4,74.8,61.3,69.7,64.9,60.0,96,74,46,30.05,29.89,3,0,0,0.00
2014-7-7,91.9,78.5,66.4,75.3,69.7,66.0,99,77,48,29.93,29.80,2,0,0,0.00
2014-7-8,94.3,80.5,68.5,72.7,69.0,65.6,98,71,42,29.91,29.79,6,1,0,0.00
2014-7-9,91.2,78.6,71.1,73.9,70.9,67.3,99,79,55,29.91,29.79,3,0,0,0.10
2014-7-10,88.0,76.4,70.3,76.3,72.2,70.0,99,88,65,29.97,29.84,3,0,0,0.02
2014-7-11,91.2,78.3,68.2,74.0,71.4,67.9,99,81,55,30.07,29.94,6,0,0,0.00
2014-7-12,93.7,80.6,70.5,74.8,71.1,67.6,99,75,46,30.07,29.96,3,0,0,0.00
2014-7-13,93.4,80.7,69.3,74.0,70.6,69.0,99,74,46,30.01,29.86,3,0,0,0.00
2014-7-14,97.3,81.7,70.5,75.0,71.9,69.3,96,75,45,29.90,29.76,5,0,0,0.00
2014-7-15,93.9,81.9,72.9,74.1,71.6,67.9,96,73,49,29.78,29.61,5,1,0,0.00
2014-7-16,87.8,77.4,68.2,70.0,65.5,58.1,98,70,43,29.78,29.68,4,0,0,0.00
2014-7-17,87.8,76.6,66.2,66.0,60.0,55.2,73,57,42,29.91,29.77,6,1,0,0.00
2014-7-18,80.6,73.4,68.9,72.3,69.9,65.7,99,89,70,30.01,29.91,5,0,0,0.05
2014-7-19,69.6,67.7,64.6,69.3,67.4,64.3,99,99,98,29.99,29.92,3,0,0,0.98
2014-7-20,81.3,70.6,64.8,74.0,68.6,64.5,99,94,76,29.97,29.86,3,0,0,0.07
2014-7-21,84.6,75.4,70.9,76.8,72.9,70.6,99,92,74,29.97,29.88,3,0,0,0.06
2014-7-22,86.2,76.8,71.1,74.8,72.3,70.8,99,87,66,30.01,29.91,4,0,0,0.00
2014-7-23,90.9,78.9,70.0,76.6,72.8,69.7,99,83,56,29.98,29.80,2,0,0,0.00
2014-7-24,91.8,78.8,72.0,76.9,74.0,71.7,99,86,60,29.83,29.71,3,0,0,0.01
2014-7-25,88.7,77.7,69.4,73.8,71.2,68.2,99,82,51,29.90,29.79,3,0,0,0.00
2014-7-26,93.0,79.2,68.2,73.2,69.5,65.5,99,75,42,29.89,29.80,3,0,0,0.00
2014-7-27,96.3,81.8,70.9,77.7,73.0,69.6,96,77,51,29.86,29.71,3,0,0,0.00
2014-7-28,93.0,82.5,70.5,75.0,67.6,59.3,97,64,35,29.78,29.66,6,1,0,0.00
2014-7-29,88.2,73.6,61.0,64.5,60.8,57.4,99,68,36,29.85,29.76,4,0,0,0.00
2014-7-30,86.0,75.0,64.2,65.5,62.3,57.2,84,66,46,29.91,29.85,3,0,0,0.00
2014-7-31,70.2,67.4,65.1,69.1,66.0,62.3,99,95,83,29.97,29.89,0,0,0,0.82
2014-8-1,74.3,68.5,64.9,68.4,65.8,64.6,99,92,77,29.96,29.90,4,1,0,0.76
2014-8-2,79.7,71.8,66.9,70.4,67.6,65.2,99,87,70,29.97,29.88,4,0,0,0.00
2014-8-3,88.5,75.4,66.2,72.0,69.2,65.9,99,83,52,29.97,29.84,3,0,0,0.00
2014-8-4,88.7,76.0,67.5,73.7,69.8,67.2,99,83,53,29.94,29.84,5,0,0,0.00
2014-8-5,93.2,77.5,65.7,73.7,69.1,65.4,99,78,42,29.93,29.82,2,0,0,0.00
2014-8-6,93.9,78.5,67.6,71.3,68.9,64.2,96,75,46,29.89,29.78,2,0,0,0.00
2014-8-7,94.6,80.2,68.2,73.0,70.4,67.9,99,75,43,29.87,29.78,3,0,0,0.00
2014-8-8,75.6,72.0,69.6,72.7,71.0,69.3,99,97,86,29.97,29.85,3,0,0,1.39
2014-8-9,86.2,75.3,68.4,76.4,72.4,68.1,99,92,69,29.94,29.79,2,0,0,0.08
2014-8-10,74.8,70.3,66.9,74.5,69.5,66.6,99,97,91,29.94,29.83,3,0,0,1.91
2014-8-11,89.2,75.9,69.6,76.3,72.2,69.3,99,90,64,29.91,29.75,3,0,0,0.00
2014-8-12,90.5,78.6,71.1,77.8,73.9,70.8,99,87,64,29.79,29.62,4,0,0,0.00
2014-8-13,87.4,75.4,67.8,70.7,66.1,60.3,99,75,45,29.85,29.70,3,0,0,0.00
2014-8-14,88.5,72.4,61.0,67.3,63.7,60.3,99,77,45,29.92,29.80,3,0,0,0.00
2014-8-15,91.9,74.1,62.2,69.1,66.0,61.9,99,79,42,29.89,29.78,2,0,0,0.00
2014-8-16,90.5,75.0,64.2,73.1,68.5,63.9,99,82,54,29.89,29.82,2,0,0,0.00
2014-8-17,90.9,77.1,66.4,76.3,70.4,66.1,99,82,55,29.89,29.78,3,0,0,0.02
2014-8-18,87.4,77.2,70.5,75.3,71.5,69.0,99,84,57,29.82,29.67,4,0,0,0.00
2014-8-19,93.6,78.6,70.5,76.7,72.2,69.6,99,82,53,29.75,29.65,4,0,0,0.01
2014-8-20,93.4,76.9,68.0,77.0,71.3,67.5,99,85,53,29.93,29.75,7,0,0,0.65
2014-8-21,95.4,77.7,66.2,76.2,70.9,65.9,99,83,45,29.97,29.87,2,0,0,0.00
2014-8-22,95.7,80.8,70.3,77.4,73.4,70.0,99,81,53,29.94,29.80,2,0,0,0.00
2014-8-23,94.5,80.2,70.5,76.5,73.6,70.2,99,83,50,29.84,29.72,5,0,0,0.00
2014-8-24,82.6,77.6,73.8,75.5,72.4,68.3,99,85,71,29.93,29.76,4,1,0,0.04
2014-8-25,86.7,74.5,66.4,67.8,63.0,58.8,92,69,44,29.97,29.86,6,1,0,0.03
2014-8-26,88.5,72.2,60.3,66.0,63.0,59.5,99,75,45,30.01,29.87,4,0,0,0.00
2014-8-27,91.4,73.1,60.4,67.0,62.5,57.3,99,74,35,29.97,29.83,5,0,0,0.00
2014-8-28,94.8,75.6,60.8,70.2,65.2,60.5,99,75,38,29.90,29.78,3,0,0,0.00
2014-8-29,95.7,78.3,64.0,72.3,68.0,63.7,99,75,39,29.97,29.84,4,0,0,0.00
2014-8-30,90.7,78.6,67.3,77.3,72.8,66.9,99,84,60,30.03,29.92,2,0,0,0.00
2014-8-31,90.5,78.5,72.1,78.0,73.9,71.8,99,87,62,30.02,29.90,3,0,0,1.56
2014-9-1,92.1,79.2,69.6,78.0,73.6,69.3,99,85,56,29.98,29.88,1,0,0,0.02
2014-9-2,95.5,80.4,70.5,76.6,73.4,70.2,99,81,52,29.94,29.79,3,0,0,0.00
2014-9-3,93.7,77.9,70.9,78.4,72.9,70.6,99,86,55,29.96,29.80,3,0,0,0.88
2014-9-4,86.4,76.4,70.9,77.5,73.6,70.6,99,92,69,30.03,29.91,3,0,0,0.00
2014-9-5,91.0,77.9,70.5,76.7,73.3,70.2,99,87,57,30.06,29.89,3,0,0,0.00
2014-9-6,92.3,78.2,69.8,76.8,73.1,69.5,99,86,57,29.94,29.75,3,0,0,0.00
2014-9-7,91.2,78.3,71.2,75.4,73.1,70.9,99,86,59,29.90,29.75,4,1,0,0.19
2014-9-8,79.2,72.8,70.2,72.0,69.8,66.8,99,91,75,29.97,29.86,4,1,0,0.03
2014-9-9,80.1,73.3,68.2,71.5,68.8,67.5,98,86,71,29.99,29.90,3,0,0,0.00
2014-9-10,86.0,73.0,64.8,73.5,69.0,64.5,99,88,62,29.98,29.86,3,0,0,0.00
2014-9-11,89.6,75.7,67.6,77.6,72.3,67.3,99,90,64,29.92,29.77,4,0,0,0.11
2014-9-12,91.2,77.9,71.4,78.5,74.4,71.1,99,90,62,29.90,29.76,4,0,0,0.06
2014-9-13,88.2,76.0,71.1,78.0,73.6,69.3,99,93,70,29.99,29.82,3,0,0,0.02
2014-9-14,72.0,66.4,64.4,70.1,64.5,61.7,98,94,88,30.10,29.99,5,1,0,0.11
2014-9-15,77.5,69.8,64.9,71.6,67.7,64.0,99,93,80,30.08,29.96,0,0,0,0.00
2014-9-16,88.2,75.8,67.6,74.8,70.6,66.3,99,85,60,29.98,29.76,3,0,0,0.01
2014-9-17,81.5,71.0,65.5,70.7,67.6,65.2,99,90,69,29.82,29.71,3,0,0,0.00
2014-9-18,83.3,70.5,62.1,70.1,66.2,61.8,99,88,60,29.87,29.75,2,0,0,0.00
2014-9-19,78.3,69.7,65.1,70.5,66.2,62.2,99,89,67,30.03,29.86,5,0,0,0.16
2014-9-20,84.6,71.1,63.5,66.7,63.6,61.4,98,79,50,30.04,29.85,4,1,0,0.00
2014-9-21,88.0,71.8,58.3,69.8,65.0,58.0,99,82,54,29.89,29.68,5,0,0,0.00
2014-9-22,81.1,70.6,61.9,69.2,63.1,57.9,98,79,48,30.00,29.76,2,0,0,0.00
2014-9-23,70.5,62.1,57.4,60.3,56.4,54.1,99,82,65,30.15,29.98,5,1,0,0.00
2014-9-24,74.1,63.1,54.5,60.3,54.1,49.2,91,74,56,30.18,30.08,7,1,0,0.00
2014-9-25,74.7,67.7,63.0,65.4,62.9,60.0,95,85,71,30.10,29.99,4,1,0,0.00
2014-9-26,68.4,64.9,61.5,65.0,63.1,61.2,99,94,88,30.04,29.99,3,0,0,0.00
2014-9-27,79.9,70.6,63.5,65.7,63.1,59.4,97,79,55,30.06,29.95,3,0,0,0.00
2014-9-28,77.2,69.0,62.6,66.2,63.3,59.9,98,83,68,30.03,29.91,3,0,0,0.00
2014-9-29,71.4,67.0,63.5,68.3,65.8,63.2,99,96,86,29.92,29.80,3,0,0,0.33
2014-9-30,84.2,68.9,60.6,69.5,64.6,60.3,99,88,55,29.81,29.66,3,0,0,0.00
2014-10-1,84.2,69.3,58.6,69.4,63.8,58.3,99,85,49,29.88,29.76,3,0,0,0.00
2014-10-2,86.0,69.7,58.1,69.3,63.5,57.8,99,83,51,29.97,29.84,3,0,0,0.03
2014-10-3,76.3,68.4,62.8,73.3,67.3,62.2,99,97,88,29.89,29.66,4,0,0,0.22
2014-10-4,68.4,59.9,45.9,65.4,45.9,31.0,99,65,28,29.80,29.60,6,1,0,0.07
2014-10-5,69.8,51.9,39.0,46.4,41.9,36.0,99,73,36,29.90,29.77,5,0,0,0.00
2014-10-6,78.6,59.0,43.9,58.7,50.8,43.6,99,77,47,29.94,29.81,5,0,0,0.01
2014-10-7,81.1,66.5,54.7,62.5,57.6,52.0,95,75,51,29.99,29.82,4,0,0,0.00
2014-10-8,89.1,70.5,61.9,67.9,62.4,58.8,96,78,44,29.95,29.81,4,0,0,0.00
2014-10-9,84.6,68.6,56.7,68.4,61.8,56.2,99,82,47,30.00,29.88,2,0,0,0.26
2014-10-10,83.5,70.9,61.5,72.8,67.9,61.2,99,91,68,29.95,29.81,3,0,0,0.01
2014-10-11,84.7,72.2,66.2,73.2,68.8,65.8,99,90,66,29.89,29.77,4,0,0,0.00
2014-10-12,66.9,63.1,58.6,66.6,62.3,58.3,99,97,90,30.05,29.86,5,1,0,0.84
2014-10-13,72.3,64.5,58.5,68.9,63.4,58.2,99,96,86,30.07,29.89,4,1,0,0.02
2014-10-14,71.1,68.6,61.0,70.8,68.3,60.7,99,99,98,29.89,29.57,5,1,0,2.25
2014-10-15,69.6,59.5,52.2,60.3,56.0,51.9,99,90,57,29.74,29.64,4,0,0,0.01
2014-10-16,71.1,59.8,52.5,56.5,54.5,51.4,99,84,58,29.77,29.64,3,0,0,0.00
2014-10-17,76.1,59.6,45.5,60.0,53.3,45.2,99,82,54,29.82,29.66,3,0,0,0.00
2014-10-18,78.8,64.0,53.2,60.7,53.9,44.6,99,73,42,29.83,29.61,4,1,0,0.00
2014-10-19,73.2,55.5,43.2,52.3,47.9,42.5,99,78,43,30.00,29.82,3,0,0,0.00
2014-10-20,72.0,55.8,42.1,56.0,50.6,41.8,99,85,55,29.99,29.82,3,0,0,0.00
2014-10-21,76.6,59.3,47.1,57.4,51.3,46.8,99,78,42,29.85,29.68,4,1,0,0.00
2014-10-22,69.4,52.8,39.4,47.8,42.9,38.8,99,73,37,29.97,29.84,4,0,0,0.00
2014-10-23,73.0,51.3,36.1,50.6,43.4,35.8,99,79,37,29.98,29.81,2,0,0,0.00
2014-10-24,70.7,52.6,41.0,51.9,46.9,40.7,99,84,47,29.95,29.83,3,0,0,0.00
2014-10-25,75.4,55.1,40.6,53.9,48.4,40.3,99,82,40,29.92,29.79,3,0,0,0.00
2014-10-26,83.8,61.3,46.0,61.6,52.8,45.7,99,78,36,29.84,29.71,4,0,0,0.03
2014-10-27,80.6,60.6,46.0,59.4,52.9,45.7,99,80,39,29.97,29.84,3,0,0,0.00
2014-10-28,80.6,62.3,49.1,64.1,56.3,48.8,99,83,54,30.00,29.89,4,0,0,0.00
2014-10-29,74.8,62.4,53.1,63.1,58.2,50.8,99,87,67,29.91,29.76,3,0,0,0.00
2014-10-30,68.0,52.5,40.5,49.9,44.5,40.2,99,78,40,29.94,29.77,3,0,0,0.00
2014-10-31,66.0,51.4,38.7,49.4,43.6,38.4,99,77,51,29.81,29.62,4,1,0,0.01
2014-11-1,54.0,43.5,34.3,40.6,36.5,33.3,99,79,49,30.01,29.62,9,2,0,0.38
2014-11-2,59.4,41.9,29.8,33.5,28.3,17.3,99,67,20,30.23,30.00,6,1,0,0.00
2014-11-3,65.1,43.4,27.3,39.1,32.3,26.7,98,71,28,30.34,30.20,4,0,0,0.00
2014-11-4,70.3,50.4,35.8,45.9,38.5,32.9,99,70,28,30.24,30.08,2,0,0,0.00
2014-11-5,68.4,55.8,45.5,56.9,50.2,41.7,97,83,60,30.16,30.02,2,0,0,0.00
2014-11-6,71.4,60.5,50.0,63.7,51.3,31.6,99,76,37,30.02,29.65,11,2,0,0.03
2014-11-7,62.1,47.6,37.2,40.7,37.1,31.9,97,70,41,29.92,29.81,3,0,0,0.01
2014-11-8,61.0,45.1,35.4,43.9,39.1,35.1,99,82,48,29.94,29.79,4,0,0,0.00
2014-11-9,67.3,47.6,36.1,45.7,40.9,35.8,99,81,40,29.88,29.73,3,0,0,0.00
2014-11-10,68.5,49.1,35.4,50.4,42.9,35.1,99,83,44,29.96,29.85,4,0,0,0.00
2014-11-11,70.9,49.9,34.3,49.7,41.4,34.0,99,78,26,29.92,29.75,3,0,0,0.06
2014-11-12,77.7,56.8,42.6,60.6,51.0,41.7,99,83,54,29.87,29.78,3,0,0,0.00
2014-11-13,65.1,50.9,42.1,49.4,44.4,37.9,99,80,55,29.92,29.79,3,0,0,0.00
2014-11-14,47.3,41.0,30.4,39.0,29.5,20.1,79,64,48,30.17,29.87,4,1,0,0.00
2014-11-15,46.4,34.0,25.9,26.2,20.4,15.7,85,59,36,30.32,30.15,5,0,0,0.03
2014-11-16,56.8,45.1,30.0,45.2,32.7,25.0,94,64,38,30.20,29.87,3,0,0,0.05
2014-11-17,57.0,45.2,32.5,55.1,42.9,27.0,99,92,75,29.86,29.52,7,1,0,1.22
2014-11-18,39.6,31.1,25.2,27.5,16.3,9.3,83,56,32,30.18,29.86,7,2,0,0.00
2014-11-19,45.3,31.1,16.7,23.7,17.6,13.3,93,61,31,30.27,30.09,4,0,0,0.02
2014-11-20,61.0,43.8,29.8,35.9,30.3,22.9,80,61,37,30.12,29.91,4,0,0,0.03
2014-11-21,62.4,43.6,30.9,34.4,31.7,29.1,94,68,30,30.34,30.08,5,0,0,0.00
2014-11-22,56.5,41.5,28.0,32.2,26.6,19.4,92,60,29,30.41,30.14,4,0,0,0.00
2014-11-23,52.9,46.3,42.1,52.6,43.8,29.9,99,92,51,30.13,29.56,4,1,0,2.23
2014-11-24,72.3,60.8,54.0,63.5,58.2,53.7,99,92,65,29.76,29.58,3,0,0,0.02
2014-11-25,62.1,52.8,48.4,55.8,48.2,44.4,99,85,57,29.92,29.75,2,0,0,0.08
2014-11-26,59.0,49.1,43.3,49.8,41.7,28.3,99,78,43,29.90,29.76,5,1,0,0.58
2014-11-27,51.6,42.8,34.0,37.4,30.5,25.6,88,63,42,30.17,29.84,9,2,0,0.01
2014-11-28,47.5,33.5,23.2,29.6,25.4,21.1,99,75,40,30.27,30.12,4,0,0,0.00
2014-11-29,58.3,40.4,25.3,36.3,29.9,24.6,99,71,35,30.18,30.04,4,0,0,0.00
2014-11-30,67.5,51.0,38.5,53.4,43.9,34.4,97,78,60,30.20,30.07,5,0,0,0.00
2014-12-1,71.8,51.2,35.1,57.5,46.8,34.8,99,87,59,30.27,30.11,4,0,0,0.00
2014-12-2,72.0,52.2,40.8,56.0,47.1,40.5,99,85,52,30.20,30.09,7,1,0,0.00
2014-12-3,64.4,53.7,46.0,58.8,52.2,44.7,99,95,81,30.17,30.03,3,0,0,0.00
2014-12-4,65.1,53.5,44.4,55.8,51.1,44.1,99,92,68,30.22,30.09,4,1,0,0.01
2014-12-5,54.1,50.9,48.9,50.6,49.5,47.6,99,95,79,30.31,30.19,3,1,0,0.12
2014-12-6,52.7,50.0,44.8,52.4,49.7,44.5,99,99,99,30.19,29.92,2,0,0,0.29
2014-12-7,57.7,46.3,36.7,43.9,34.5,23.2,99,68,36,30.24,30.01,8,2,0,0.00
2014-12-8,45.3,41.0,39.0,38.0,29.8,21.5,94,66,42,30.27,30.04,10,3,0,0.00
2014-12-9,54.5,43.4,33.8,41.1,38.3,32.8,99,83,51,30.04,29.84,4,1,0,0.00
2014-12-10,54.1,37.6,26.8,38.6,30.5,26.6,99,79,41,29.97,29.84,5,1,0,0.00
2014-12-11,52.5,34.9,24.1,32.9,27.8,23.6,99,79,38,30.03,29.88,3,0,0,0.00
2014-12-12,60.3,37.0,21.9,30.8,25.3,21.3,99,71,24,30.16,29.99,3,0,0,0.00
2014-12-13,63.9,40.1,25.3,32.7,27.0,21.0,99,68,20,30.05,29.90,3,0,0,0.00
2014-12-14,67.8,41.9,25.7,38.1,31.2,25.1,99,73,22,29.93,29.80,3,0,0,0.00
2014-12-15,62.2,41.7,27.5,37.9,33.6,27.3,99,77,39,29.96,29.84,5,0,0,0.00
2014-12-16,62.4,49.5,41.4,55.3,44.0,38.1,99,83,58,29.94,29.70,7,1,0,0.12
2014-12-17,58.5,42.4,30.0,42.5,37.4,29.8,99,85,50,30.02,29.88,3,0,0,0.00
2014-12-18,59.2,44.3,31.8,40.0,34.4,29.3,99,73,34,30.04,29.89,3,0,0,0.00
2014-12-19,59.9,43.5,30.0,40.2,36.0,29.8,99,78,44,30.03,29.93,4,0,0,0.00
2014-12-20,45.3,43.6,42.4,43.4,42.1,38.7,99,94,84,30.09,30.00,4,0,0,0.08
2014-12-21,54.5,47.2,42.6,44.5,42.6,41.2,96,85,67,30.11,29.99,4,1,0,0.00
2014-12-22,45.1,42.5,39.7,43.7,41.8,39.4,99,97,92,30.01,29.83,6,2,0,0.31
2014-12-23,45.5,42.3,39.2,45.2,42.0,38.9,99,99,99,29.87,29.66,4,2,0,0.62
2014-12-24,52.3,49.5,45.5,52.0,49.2,45.2,99,99,99,29.73,29.49,6,1,0,1.90
2014-12-25,55.6,45.2,31.8,46.8,37.9,31.6,99,78,48,30.11,29.63,6,1,0,0.00
2014-12-26,59.2,40.5,27.7,43.2,35.1,27.5,99,84,48,30.22,30.08,4,0,0,0.01
2014-12-27,63.1,43.6,29.5,44.9,37.5,29.3,99,82,38,30.20,30.04,3,0,0,0.00
2014-12-28,58.3,53.3,48.4,58.0,52.8,44.9,99,98,86,30.06,29.85,2,0,0,0.27
2014-12-29,63.1,55.8,51.1,57.3,54.3,50.8,99,95,76,29.98,29.85,4,0,0,0.33
2014-12-30,53.2,46.2,40.3,52.9,42.9,37.2,99,88,73,30.29,29.92,7,2,0,0.01
2014-12-31,48.2,39.5,30.7,38.4,35.6,30.5,99,87,63,30.33,30.18,3,0,0,0.00
2015-1-1,56.7,40.8,25.5,39.5,31.3,25.3,99,73,39,30.21,30.06,4,0,0,0.00
2015-1-2,51.1,46.4,42.3,48.3,44.5,38.3,99,93,78,30.18,30.09,2,0,0,0.68